< < Back
Terminal Aerodrome Forecast


Current Version              Previous Versions:   1  2  3  4  5  6  7  8  9  

Terminal Aerodrome Forecast

321
FTUS42 KILM 191100 CCA
TAFFLO
TAF COR
KFLO 191146Z 1912/2012 05012G20KT 5SM -RA BR OVC007
      TEMPO 1912/1915 2SM -RA BR
     FM191500 04014G20KT 6SM -RA BKN008 OVC015
     FM200800 03015G25KT P6SM BKN010 OVC025=

Latest METAR

128
SAUS70 KWBC 200600 RRH
MTRFLO
METAR KFLO 200553Z AUTO 03014G19KT 6SM -RA BR FEW010 OVC016 09/08 A3010
RMK AO2 PK WND 05026/0504 SLP191 P0009 60015 T00940078 10111
20094 58005


USA.gov is the U.S. government's official web portal to all federal, state and local government web resources and services.